Parish, New York
Current Conditions -  °F | °C
As of 6:09 PM on Thursday 27 Nov 2014 (Local Time) from KFZY Reporting Station
Light Snow Light Snow  
Wind Chill: 23°   Ceiling: 2100
Heat Index: 29°   Visibility: 2mi
Dew Point: 26°   Wind: 6mph
Humidity: 89%   Direction: 220°SW
Pressure: 30.05"   Gusts: NA
Location:  43.41°N, 76.13°W
Report Text: KFZY 272309Z AUTO 22005KT 2SM -SN BR FEW007 BKN021 OVC029 M02/M03 A3005 RMK AO2 P0000 T10171033
Loading
Personal Weather Stations






























Interactive Weather Map New forecast layout! Learn more

10-Day Weather Forecast

Advertisements
Track Severe Weather on mobile